sensor_id;sensor_type;location;lat;lon;timestamp;P1;P2;P0
55076;PMS7003;40971;44.702;11.030;2023-05-10T00:07:51;14.67;14.67;12.00
55076;PMS7003;40971;44.702;11.030;2023-05-10T00:17:54;15.67;14.00;10.00
55076;PMS7003;40971;44.702;11.030;2023-05-10T00:27:58;16.29;15.14;10.00
55076;PMS7003;40971;44.702;11.030;2023-05-10T00:37:59;12.33;12.00;9.67
55076;PMS7003;40971;44.702;11.030;2023-05-10T00:48:00;9.00;9.00;9.00
55076;PMS7003;40971;44.702;11.030;2023-05-10T00:58:04;17.67;15.33;12.00
55076;PMS7003;40971;44.702;11.030;2023-05-10T01:08:06;13.33;13.33;10.00
55076;PMS7003;40971;44.702;11.030;2023-05-10T01:18:09;13.00;13.00;10.00
55076;PMS7003;40971;44.702;11.030;2023-05-10T01:48:47;14.00;11.33;8.33
55076;PMS7003;40971;44.702;11.030;2023-05-10T01:58:51;15.00;10.50;8.50
55076;PMS7003;40971;44.702;11.030;2023-05-10T02:08:54;15.00;12.33;9.00
55076;PMS7003;40971;44.702;11.030;2023-05-10T02:18:58;14.33;13.33;10.33
55076;PMS7003;40971;44.702;11.030;2023-05-10T02:29:02;12.50;12.50;8.00
55076;PMS7003;40971;44.702;11.030;2023-05-10T02:39:08;15.00;15.00;12.00
55076;PMS7003;40971;44.702;11.030;2023-05-10T02:49:15;14.50;14.50;11.50
55076;PMS7003;40971;44.702;11.030;2023-05-10T02:59:17;19.00;18.33;12.67
55076;PMS7003;40971;44.702;11.030;2023-05-10T03:09:18;20.67;20.67;15.33
55076;PMS7003;40971;44.702;11.030;2023-05-10T03:19:22;18.00;18.00;13.00
55076;PMS7003;40971;44.702;11.030;2023-05-10T03:29:28;14.00;12.67;9.67
55076;PMS7003;40971;44.702;11.030;2023-05-10T03:39:33;18.00;18.00;13.00
55076;PMS7003;40971;44.702;11.030;2023-05-10T03:49:35;16.00;16.00;12.00
55076;PMS7003;40971;44.702;11.030;2023-05-10T03:59:36;19.00;18.00;11.00
55076;PMS7003;40971;44.702;11.030;2023-05-10T04:09:39;18.43;16.43;11.86
55076;PMS7003;40971;44.702;11.030;2023-05-10T04:19:41;15.00;15.00;11.00
55076;PMS7003;40971;44.702;11.030;2023-05-10T04:29:43;14.50;12.00;8.00
55076;PMS7003;40971;44.702;11.030;2023-05-10T04:39:46;15.14;14.29;9.14
55076;PMS7003;40971;44.702;11.030;2023-05-10T04:49:49;14.33;12.00;9.17
55076;PMS7003;40971;44.702;11.030;2023-05-10T04:59:52;13.80;12.80;9.20
55076;PMS7003;40971;44.702;11.030;2023-05-10T05:09:55;15.50;12.17;9.00
55076;PMS7003;40971;44.702;11.030;2023-05-10T05:20:06;13.33;12.00;9.00
55076;PMS7003;40971;44.702;11.030;2023-05-10T05:30:10;12.33;12.33;8.67
55076;PMS7003;40971;44.702;11.030;2023-05-10T05:40:13;9.17;9.17;7.00
55076;PMS7003;40971;44.702;11.030;2023-05-10T05:50:15;12.00;12.00;8.00
55076;PMS7003;40971;44.702;11.030;2023-05-10T06:00:16;11.50;11.50;9.00
55076;PMS7003;40971;44.702;11.030;2023-05-10T06:10:17;11.50;11.50;8.00
55076;PMS7003;40971;44.702;11.030;2023-05-10T06:20:20;13.20;12.00;9.00
55076;PMS7003;40971;44.702;11.030;2023-05-10T06:30:22;14.60;13.20;8.60
55076;PMS7003;40971;44.702;11.030;2023-05-10T06:40:28;14.00;14.00;11.00
55076;PMS7003;40971;44.702;11.030;2023-05-10T06:50:31;17.33;17.33;11.17
55076;PMS7003;40971;44.702;11.030;2023-05-10T07:00:33;21.00;21.00;15.80
55076;PMS7003;40971;44.702;11.030;2023-05-10T07:10:35;16.00;16.00;11.67
55076;PMS7003;40971;44.702;11.030;2023-05-10T07:20:37;22.20;20.80;12.40
55076;PMS7003;40971;44.702;11.030;2023-05-10T07:30:38;23.33;22.00;15.67
55076;PMS7003;40971;44.702;11.030;2023-05-10T07:40:40;26.33;24.67;15.00
55076;PMS7003;40971;44.702;11.030;2023-05-10T07:50:41;19.00;19.00;14.00
55076;PMS7003;40971;44.702;11.030;2023-05-10T08:00:42;23.33;23.33;15.00
55076;PMS7003;40971;44.702;11.030;2023-05-10T08:10:44;23.33;22.67;14.00
55076;PMS7003;40971;44.702;11.030;2023-05-10T08:20:47;18.00;18.00;13.43
55076;PMS7003;40971;44.702;11.030;2023-05-10T08:30:50;18.86;18.14;14.00
55076;PMS7003;40971;44.702;11.030;2023-05-10T08:40:52;18.00;18.00;14.00
55076;PMS7003;40971;44.702;11.030;2023-05-10T08:51:00;17.43;17.43;11.00
55076;PMS7003;40971;44.702;11.030;2023-05-10T09:01:03;14.33;14.33;11.00
55076;PMS7003;40971;44.702;11.030;2023-05-10T09:11:07;19.33;17.00;11.33
55076;PMS7003;40971;44.702;11.030;2023-05-10T09:21:10;17.67;17.67;13.67
55076;PMS7003;40971;44.702;11.030;2023-05-10T09:31:14;20.43;16.86;11.14
55076;PMS7003;40971;44.702;11.030;2023-05-10T09:41:19;17.00;17.00;13.00
55076;PMS7003;40971;44.702;11.030;2023-05-10T09:51:23;21.67;19.67;13.67
55076;PMS7003;40971;44.702;11.030;2023-05-10T10:01:28;14.33;14.33;11.33
55076;PMS7003;40971;44.702;11.030;2023-05-10T10:11:31;17.33;17.33;12.33
55076;PMS7003;40971;44.702;11.030;2023-05-10T10:21:34;16.67;16.00;11.00
55076;PMS7003;40971;44.702;11.030;2023-05-10T10:31:41;15.33;14.33;11.17
55076;PMS7003;40971;44.702;11.030;2023-05-10T10:41:52;13.00;13.00;10.00
55076;PMS7003;40971;44.702;11.030;2023-05-10T11:03:13;14.50;14.50;9.33
55076;PMS7003;40971;44.702;11.030;2023-05-10T11:23:12;15.67;15.67;10.33
55076;PMS7003;40971;44.702;11.030;2023-05-10T11:33:18;12.17;12.17;9.67
55076;PMS7003;40971;44.702;11.030;2023-05-10T11:43:23;11.50;11.50;8.00
55076;PMS7003;40971;44.702;11.030;2023-05-10T11:53:29;11.00;10.00;7.00
55076;PMS7003;40971;44.702;11.030;2023-05-10T12:03:31;8.00;8.00;5.00
55076;PMS7003;40971;44.702;11.030;2023-05-10T12:13:38;11.33;11.33;9.67
55076;PMS7003;40971;44.702;11.030;2023-05-10T12:23:51;14.50;13.33;8.33
55076;PMS7003;40971;44.702;11.030;2023-05-10T12:33:55;13.33;13.00;9.17
55076;PMS7003;40971;44.702;11.030;2023-05-10T12:43:58;14.33;12.00;10.33
55076;PMS7003;40971;44.702;11.030;2023-05-10T12:54:02;16.86;14.86;11.29
55076;PMS7003;40971;44.702;11.030;2023-05-10T13:04:05;12.00;12.00;9.17
55076;PMS7003;40971;44.702;11.030;2023-05-10T13:14:09;15.86;15.14;10.14
55076;PMS7003;40971;44.702;11.030;2023-05-10T13:24:11;18.33;16.67;12.00
55076;PMS7003;40971;44.702;11.030;2023-05-10T13:34:16;15.14;15.14;11.29
55076;PMS7003;40971;44.702;11.030;2023-05-10T13:44:21;18.00;18.00;13.67
55076;PMS7003;40971;44.702;11.030;2023-05-10T13:54:24;20.43;18.86;13.14
55076;PMS7003;40971;44.702;11.030;2023-05-10T14:04:29;21.00;19.57;12.14
55076;PMS7003;40971;44.702;11.030;2023-05-10T14:14:31;18.00;15.67;12.67
55076;PMS7003;40971;44.702;11.030;2023-05-10T14:24:33;23.67;19.67;15.00
55076;PMS7003;40971;44.702;11.030;2023-05-10T14:34:34;20.67;18.33;15.00
55076;PMS7003;40971;44.702;11.030;2023-05-10T14:44:36;20.00;20.00;16.00
55076;PMS7003;40971;44.702;11.030;2023-05-10T14:54:39;21.60;21.60;16.60
55076;PMS7003;40971;44.702;11.030;2023-05-10T15:04:41;22.33;22.33;14.67
55076;PMS7003;40971;44.702;11.030;2023-05-10T15:14:43;24.67;24.67;17.33
55076;PMS7003;40971;44.702;11.030;2023-05-10T15:24:46;20.14;19.14;13.57
55076;PMS7003;40971;44.702;11.030;2023-05-10T15:34:49;25.57;24.14;18.00
55076;PMS7003;40971;44.702;11.030;2023-05-10T15:44:52;21.14;20.00;13.43
55076;PMS7003;40971;44.702;11.030;2023-05-10T15:54:54;16.00;16.00;12.00
55076;PMS7003;40971;44.702;11.030;2023-05-10T16:04:55;19.67;18.67;12.33
55076;PMS7003;40971;44.702;11.030;2023-05-10T16:14:57;29.33;26.67;18.33
55076;PMS7003;40971;44.702;11.030;2023-05-10T16:25:01;27.00;26.13;18.88
55076;PMS7003;40971;44.702;11.030;2023-05-10T16:35:02;28.00;27.33;20.33
55076;PMS7003;40971;44.702;11.030;2023-05-10T16:45:05;28.00;28.00;19.20
55076;PMS7003;40971;44.702;11.030;2023-05-10T16:55:07;23.00;22.67;18.00
55076;PMS7003;40971;44.702;11.030;2023-05-10T17:05:12;25.75;25.75;18.25
55076;PMS7003;40971;44.702;11.030;2023-05-10T17:15:13;20.00;20.00;15.67
55076;PMS7003;40971;44.702;11.030;2023-05-10T17:25:16;28.33;26.33;16.67
55076;PMS7003;40971;44.702;11.030;2023-05-10T17:35:19;24.80;23.20;15.80
55076;PMS7003;40971;44.702;11.030;2023-05-10T17:45:21;25.50;22.50;14.50
55076;PMS7003;40971;44.702;11.030;2023-05-10T17:55:23;23.67;21.00;14.67
55076;PMS7003;40971;44.702;11.030;2023-05-10T18:05:24;22.20;21.60;15.60
55076;PMS7003;40971;44.702;11.030;2023-05-10T18:15:26;23.00;23.00;15.67
55076;PMS7003;40971;44.702;11.030;2023-05-10T18:25:28;28.60;26.80;18.80
55076;PMS7003;40971;44.702;11.030;2023-05-10T18:35:32;33.25;30.38;22.38
55076;PMS7003;40971;44.702;11.030;2023-05-10T18:45:38;29.00;29.00;19.00
55076;PMS7003;40971;44.702;11.030;2023-05-10T18:55:42;28.50;28.50;21.00
55076;PMS7003;40971;44.702;11.030;2023-05-10T19:05:47;34.67;32.00;19.22
55076;PMS7003;40971;44.702;11.030;2023-05-10T19:26:13;30.80;30.80;22.00
55076;PMS7003;40971;44.702;11.030;2023-05-10T19:36:15;36.67;34.33;23.67
55076;PMS7003;40971;44.702;11.030;2023-05-10T19:46:18;35.33;33.67;24.33
55076;PMS7003;40971;44.702;11.030;2023-05-10T19:56:21;35.67;34.00;23.00
55076;PMS7003;40971;44.702;11.030;2023-05-10T20:06:23;37.67;35.00;25.00
55076;PMS7003;40971;44.702;11.030;2023-05-10T20:16:25;36.00;35.50;25.00
55076;PMS7003;40971;44.702;11.030;2023-05-10T20:26:27;29.00;28.50;23.00
55076;PMS7003;40971;44.702;11.030;2023-05-10T20:36:29;25.20;25.20;19.00
55076;PMS7003;40971;44.702;11.030;2023-05-10T20:46:32;27.67;25.67;19.00
55076;PMS7003;40971;44.702;11.030;2023-05-10T20:56:34;25.20;23.60;17.40
55076;PMS7003;40971;44.702;11.030;2023-05-10T21:06:35;24.33;21.33;15.67
55076;PMS7003;40971;44.702;11.030;2023-05-10T21:16:37;22.00;21.33;15.00
55076;PMS7003;40971;44.702;11.030;2023-05-10T21:26:40;20.67;20.00;14.00
55076;PMS7003;40971;44.702;11.030;2023-05-10T21:36:42;18.40;18.40;12.20
55076;PMS7003;40971;44.702;11.030;2023-05-10T21:46:45;22.29;21.43;15.00
55076;PMS7003;40971;44.702;11.030;2023-05-10T21:56:48;18.57;18.43;12.29
55076;PMS7003;40971;44.702;11.030;2023-05-10T22:06:50;22.33;21.67;14.00
55076;PMS7003;40971;44.702;11.030;2023-05-10T22:16:52;13.20;13.20;11.40
55076;PMS7003;40971;44.702;11.030;2023-05-10T22:26:55;16.17;14.83;11.67
55076;PMS7003;40971;44.702;11.030;2023-05-10T22:36:57;22.00;22.00;14.00
55076;PMS7003;40971;44.702;11.030;2023-05-10T22:47:01;16.43;14.71;10.86
55076;PMS7003;40971;44.702;11.030;2023-05-10T22:57:05;18.43;18.43;13.86
55076;PMS7003;40971;44.702;11.030;2023-05-10T23:07:08;17.86;14.00;10.29
55076;PMS7003;40971;44.702;11.030;2023-05-10T23:17:09;12.00;11.33;8.00
55076;PMS7003;40971;44.702;11.030;2023-05-10T23:27:10;14.50;14.50;8.00
55076;PMS7003;40971;44.702;11.030;2023-05-10T23:37:14;11.67;11.33;7.17
55076;PMS7003;40971;44.702;11.030;2023-05-10T23:47:15;10.50;10.50;8.00
55076;PMS7003;40971;44.702;11.030;2023-05-10T23:57:16;10.67;8.67;7.00
